sensor_id;sensor_type;location;lat;lon;timestamp;P1;durP1;ratioP1;P2;durP2;ratioP2
70270;SDS011;57680;54.292;18.598;2024-01-30T00:00:41;43.40;;;15.90;;
70270;SDS011;57680;54.292;18.598;2024-01-30T00:03:06;41.27;;;15.87;;
70270;SDS011;57680;54.292;18.598;2024-01-30T00:05:31;48.27;;;16.10;;
70270;SDS011;57680;54.292;18.598;2024-01-30T00:07:57;45.43;;;15.40;;
70270;SDS011;57680;54.292;18.598;2024-01-30T00:10:22;34.77;;;13.80;;
70270;SDS011;57680;54.292;18.598;2024-01-30T00:12:48;34.33;;;13.40;;
70270;SDS011;57680;54.292;18.598;2024-01-30T00:15:13;37.83;;;14.23;;
70270;SDS011;57680;54.292;18.598;2024-01-30T00:17:38;41.13;;;15.20;;
70270;SDS011;57680;54.292;18.598;2024-01-30T00:20:04;36.00;;;14.00;;
70270;SDS011;57680;54.292;18.598;2024-01-30T00:22:30;36.53;;;13.73;;
70270;SDS011;57680;54.292;18.598;2024-01-30T00:24:55;38.83;;;14.23;;
70270;SDS011;57680;54.292;18.598;2024-01-30T00:27:20;38.60;;;14.07;;
70270;SDS011;57680;54.292;18.598;2024-01-30T00:29:46;39.57;;;14.50;;
70270;SDS011;57680;54.292;18.598;2024-01-30T00:32:11;34.73;;;13.63;;
70270;SDS011;57680;54.292;18.598;2024-01-30T00:34:36;38.40;;;14.87;;
70270;SDS011;57680;54.292;18.598;2024-01-30T00:37:01;34.63;;;14.57;;
70270;SDS011;57680;54.292;18.598;2024-01-30T00:39:27;36.17;;;14.00;;
70270;SDS011;57680;54.292;18.598;2024-01-30T00:41:52;36.73;;;14.33;;
70270;SDS011;57680;54.292;18.598;2024-01-30T00:44:17;38.20;;;14.67;;
70270;SDS011;57680;54.292;18.598;2024-01-30T00:46:43;42.90;;;15.90;;
70270;SDS011;57680;54.292;18.598;2024-01-30T00:49:08;39.47;;;15.70;;
70270;SDS011;57680;54.292;18.598;2024-01-30T00:51:33;39.90;;;15.30;;
70270;SDS011;57680;54.292;18.598;2024-01-30T00:53:58;40.20;;;14.97;;
70270;SDS011;57680;54.292;18.598;2024-01-30T00:56:24;47.60;;;17.37;;
70270;SDS011;57680;54.292;18.598;2024-01-30T00:58:49;48.67;;;17.27;;
70270;SDS011;57680;54.292;18.598;2024-01-30T01:01:14;41.83;;;16.57;;
70270;SDS011;57680;54.292;18.598;2024-01-30T01:03:40;44.87;;;16.77;;
70270;SDS011;57680;54.292;18.598;2024-01-30T01:06:05;43.07;;;16.73;;
70270;SDS011;57680;54.292;18.598;2024-01-30T01:08:30;42.50;;;16.67;;
70270;SDS011;57680;54.292;18.598;2024-01-30T01:10:56;46.20;;;16.13;;
70270;SDS011;57680;54.292;18.598;2024-01-30T01:13:21;43.87;;;15.87;;
70270;SDS011;57680;54.292;18.598;2024-01-30T01:15:46;47.77;;;16.93;;
70270;SDS011;57680;54.292;18.598;2024-01-30T01:18:12;48.30;;;18.17;;
70270;SDS011;57680;54.292;18.598;2024-01-30T01:20:37;44.83;;;18.23;;
70270;SDS011;57680;54.292;18.598;2024-01-30T01:23:02;52.83;;;19.70;;
70270;SDS011;57680;54.292;18.598;2024-01-30T01:25:28;49.77;;;17.83;;
70270;SDS011;57680;54.292;18.598;2024-01-30T01:27:53;48.00;;;17.83;;
70270;SDS011;57680;54.292;18.598;2024-01-30T01:30:18;49.63;;;17.57;;
70270;SDS011;57680;54.292;18.598;2024-01-30T01:32:44;48.37;;;18.33;;
70270;SDS011;57680;54.292;18.598;2024-01-30T01:35:09;43.27;;;17.50;;
70270;SDS011;57680;54.292;18.598;2024-01-30T01:37:34;49.00;;;17.17;;
70270;SDS011;57680;54.292;18.598;2024-01-30T01:39:59;49.60;;;18.60;;
70270;SDS011;57680;54.292;18.598;2024-01-30T01:42:25;51.00;;;19.30;;
70270;SDS011;57680;54.292;18.598;2024-01-30T01:44:50;49.90;;;18.67;;
70270;SDS011;57680;54.292;18.598;2024-01-30T01:47:15;48.03;;;18.77;;
70270;SDS011;57680;54.292;18.598;2024-01-30T01:49:41;55.47;;;19.58;;
70270;SDS011;57680;54.292;18.598;2024-01-30T01:52:07;51.40;;;18.23;;
70270;SDS011;57680;54.292;18.598;2024-01-30T01:54:32;45.40;;;18.00;;
70270;SDS011;57680;54.292;18.598;2024-01-30T01:56:58;51.60;;;19.42;;
70270;SDS011;57680;54.292;18.598;2024-01-30T01:59:24;47.65;;;17.45;;
70270;SDS011;57680;54.292;18.598;2024-01-30T02:01:50;44.33;;;17.17;;
70270;SDS011;57680;54.292;18.598;2024-01-30T02:04:17;44.00;;;16.60;;
70270;SDS011;57680;54.292;18.598;2024-01-30T02:06:43;48.60;;;17.70;;
70270;SDS011;57680;54.292;18.598;2024-01-30T02:09:08;45.05;;;16.73;;
70270;SDS011;57680;54.292;18.598;2024-01-30T02:11:33;48.53;;;18.10;;
70270;SDS011;57680;54.292;18.598;2024-01-30T02:14:03;45.97;;;17.27;;
70270;SDS011;57680;54.292;18.598;2024-01-30T02:16:28;44.90;;;16.73;;
70270;SDS011;57680;54.292;18.598;2024-01-30T02:18:54;46.53;;;16.33;;
70270;SDS011;57680;54.292;18.598;2024-01-30T02:21:19;43.17;;;16.48;;
70270;SDS011;57680;54.292;18.598;2024-01-30T02:23:45;45.77;;;18.37;;
70270;SDS011;57680;54.292;18.598;2024-01-30T02:26:11;49.40;;;16.77;;
70270;SDS011;57680;54.292;18.598;2024-01-30T02:28:37;48.30;;;16.90;;
70270;SDS011;57680;54.292;18.598;2024-01-30T02:31:02;48.90;;;17.07;;
70270;SDS011;57680;54.292;18.598;2024-01-30T02:33:28;42.13;;;16.50;;
70270;SDS011;57680;54.292;18.598;2024-01-30T02:35:53;45.45;;;16.45;;
70270;SDS011;57680;54.292;18.598;2024-01-30T02:38:18;44.77;;;17.10;;
70270;SDS011;57680;54.292;18.598;2024-01-30T02:40:44;51.13;;;17.97;;
70270;SDS011;57680;54.292;18.598;2024-01-30T02:43:09;46.43;;;17.53;;
70270;SDS011;57680;54.292;18.598;2024-01-30T02:45:34;48.70;;;17.13;;
70270;SDS011;57680;54.292;18.598;2024-01-30T02:48:00;47.10;;;16.33;;
70270;SDS011;57680;54.292;18.598;2024-01-30T02:50:25;45.73;;;17.50;;
70270;SDS011;57680;54.292;18.598;2024-01-30T02:52:50;42.77;;;16.80;;
70270;SDS011;57680;54.292;18.598;2024-01-30T02:55:15;43.13;;;16.63;;
70270;SDS011;57680;54.292;18.598;2024-01-30T02:57:41;43.77;;;15.97;;
70270;SDS011;57680;54.292;18.598;2024-01-30T03:00:06;45.88;;;16.60;;
70270;SDS011;57680;54.292;18.598;2024-01-30T03:02:32;44.13;;;16.83;;
70270;SDS011;57680;54.292;18.598;2024-01-30T03:04:58;67.18;;;19.02;;
70270;SDS011;57680;54.292;18.598;2024-01-30T03:07:24;53.95;;;17.52;;
70270;SDS011;57680;54.292;18.598;2024-01-30T03:09:49;49.00;;;17.83;;
70270;SDS011;57680;54.292;18.598;2024-01-30T03:12:14;48.20;;;17.53;;
70270;SDS011;57680;54.292;18.598;2024-01-30T03:14:40;43.03;;;17.00;;
70270;SDS011;57680;54.292;18.598;2024-01-30T03:17:05;46.20;;;17.10;;
70270;SDS011;57680;54.292;18.598;2024-01-30T03:19:30;45.50;;;17.07;;
70270;SDS011;57680;54.292;18.598;2024-01-30T03:21:56;43.57;;;16.10;;
70270;SDS011;57680;54.292;18.598;2024-01-30T03:24:21;45.58;;;16.85;;
70270;SDS011;57680;54.292;18.598;2024-01-30T03:26:46;50.83;;;18.08;;
70270;SDS011;57680;54.292;18.598;2024-01-30T03:29:12;44.33;;;16.90;;
70270;SDS011;57680;54.292;18.598;2024-01-30T03:31:38;46.87;;;18.00;;
70270;SDS011;57680;54.292;18.598;2024-01-30T03:34:04;44.83;;;17.15;;
70270;SDS011;57680;54.292;18.598;2024-01-30T03:36:29;47.90;;;17.83;;
70270;SDS011;57680;54.292;18.598;2024-01-30T03:38:54;46.83;;;17.90;;
70270;SDS011;57680;54.292;18.598;2024-01-30T03:41:20;45.27;;;17.57;;
70270;SDS011;57680;54.292;18.598;2024-01-30T03:43:45;42.70;;;17.17;;
70270;SDS011;57680;54.292;18.598;2024-01-30T03:46:11;50.50;;;18.98;;
70270;SDS011;57680;54.292;18.598;2024-01-30T03:48:37;48.80;;;18.40;;
70270;SDS011;57680;54.292;18.598;2024-01-30T03:51:02;45.50;;;16.93;;
70270;SDS011;57680;54.292;18.598;2024-01-30T03:53:28;48.00;;;17.83;;
70270;SDS011;57680;54.292;18.598;2024-01-30T03:55:53;47.07;;;18.07;;
70270;SDS011;57680;54.292;18.598;2024-01-30T03:58:19;42.63;;;16.77;;
70270;SDS011;57680;54.292;18.598;2024-01-30T04:00:44;45.08;;;16.67;;
70270;SDS011;57680;54.292;18.598;2024-01-30T04:03:09;45.40;;;16.80;;
70270;SDS011;57680;54.292;18.598;2024-01-30T04:05:35;43.90;;;16.40;;
70270;SDS011;57680;54.292;18.598;2024-01-30T04:08:00;45.50;;;17.20;;
70270;SDS011;57680;54.292;18.598;2024-01-30T04:10:25;47.00;;;17.03;;
70270;SDS011;57680;54.292;18.598;2024-01-30T04:12:51;48.47;;;18.27;;
70270;SDS011;57680;54.292;18.598;2024-01-30T04:15:16;43.63;;;17.02;;
70270;SDS011;57680;54.292;18.598;2024-01-30T04:17:42;50.43;;;17.37;;
70270;SDS011;57680;54.292;18.598;2024-01-30T04:20:08;50.08;;;18.20;;
70270;SDS011;57680;54.292;18.598;2024-01-30T04:22:38;48.45;;;18.58;;
70270;SDS011;57680;54.292;18.598;2024-01-30T04:25:03;50.08;;;17.35;;
70270;SDS011;57680;54.292;18.598;2024-01-30T04:27:28;49.67;;;17.67;;
70270;SDS011;57680;54.292;18.598;2024-01-30T04:29:54;47.17;;;16.80;;
70270;SDS011;57680;54.292;18.598;2024-01-30T04:32:19;47.50;;;16.97;;
70270;SDS011;57680;54.292;18.598;2024-01-30T04:34:44;44.93;;;16.20;;
70270;SDS011;57680;54.292;18.598;2024-01-30T04:37:10;50.27;;;17.43;;
70270;SDS011;57680;54.292;18.598;2024-01-30T04:39:35;38.80;;;16.23;;
70270;SDS011;57680;54.292;18.598;2024-01-30T04:42:01;46.37;;;18.60;;
70270;SDS011;57680;54.292;18.598;2024-01-30T04:44:26;44.00;;;16.67;;
70270;SDS011;57680;54.292;18.598;2024-01-30T04:46:51;44.30;;;17.53;;
70270;SDS011;57680;54.292;18.598;2024-01-30T04:49:16;44.73;;;18.13;;
70270;SDS011;57680;54.292;18.598;2024-01-30T04:51:42;44.17;;;17.57;;
70270;SDS011;57680;54.292;18.598;2024-01-30T04:54:07;45.77;;;17.67;;
70270;SDS011;57680;54.292;18.598;2024-01-30T04:56:33;49.38;;;19.38;;
70270;SDS011;57680;54.292;18.598;2024-01-30T04:58:58;53.43;;;18.87;;
70270;SDS011;57680;54.292;18.598;2024-01-30T05:01:23;45.13;;;18.57;;
70270;SDS011;57680;54.292;18.598;2024-01-30T05:03:49;55.97;;;20.33;;
70270;SDS011;57680;54.292;18.598;2024-01-30T05:06:23;54.75;;;18.58;;
70270;SDS011;57680;54.292;18.598;2024-01-30T05:08:49;57.08;;;17.88;;
70270;SDS011;57680;54.292;18.598;2024-01-30T05:11:14;51.83;;;19.67;;
70270;SDS011;57680;54.292;18.598;2024-01-30T05:13:39;56.80;;;21.17;;
70270;SDS011;57680;54.292;18.598;2024-01-30T05:16:05;55.28;;;21.95;;
70270;SDS011;57680;54.292;18.598;2024-01-30T05:18:30;51.00;;;21.07;;
70270;SDS011;57680;54.292;18.598;2024-01-30T05:20:55;52.77;;;20.97;;
70270;SDS011;57680;54.292;18.598;2024-01-30T05:23:21;45.63;;;19.93;;
70270;SDS011;57680;54.292;18.598;2024-01-30T05:25:46;56.50;;;21.23;;
70270;SDS011;57680;54.292;18.598;2024-01-30T05:28:11;50.97;;;20.77;;
70270;SDS011;57680;54.292;18.598;2024-01-30T05:30:37;53.53;;;20.03;;
70270;SDS011;57680;54.292;18.598;2024-01-30T05:33:03;50.97;;;20.23;;
70270;SDS011;57680;54.292;18.598;2024-01-30T05:35:28;49.85;;;18.42;;
70270;SDS011;57680;54.292;18.598;2024-01-30T05:37:53;50.73;;;20.13;;
70270;SDS011;57680;54.292;18.598;2024-01-30T05:40:19;55.77;;;21.10;;
70270;SDS011;57680;54.292;18.598;2024-01-30T05:42:44;59.03;;;22.33;;
70270;SDS011;57680;54.292;18.598;2024-01-30T05:45:09;58.53;;;22.67;;
70270;SDS011;57680;54.292;18.598;2024-01-30T05:47:35;54.87;;;21.67;;
70270;SDS011;57680;54.292;18.598;2024-01-30T05:50:00;59.53;;;21.57;;
70270;SDS011;57680;54.292;18.598;2024-01-30T05:52:25;54.90;;;20.40;;
70270;SDS011;57680;54.292;18.598;2024-01-30T05:54:50;55.45;;;21.42;;
70270;SDS011;57680;54.292;18.598;2024-01-30T05:57:16;58.80;;;19.77;;
70270;SDS011;57680;54.292;18.598;2024-01-30T05:59:41;52.80;;;19.60;;
70270;SDS011;57680;54.292;18.598;2024-01-30T06:02:06;54.57;;;21.20;;
70270;SDS011;57680;54.292;18.598;2024-01-30T06:04:32;53.93;;;21.07;;
70270;SDS011;57680;54.292;18.598;2024-01-30T06:06:57;57.47;;;20.00;;
70270;SDS011;57680;54.292;18.598;2024-01-30T06:09:22;55.67;;;20.35;;
70270;SDS011;57680;54.292;18.598;2024-01-30T06:11:48;51.72;;;21.30;;
70270;SDS011;57680;54.292;18.598;2024-01-30T06:14:13;54.13;;;20.57;;
70270;SDS011;57680;54.292;18.598;2024-01-30T06:16:38;46.53;;;19.67;;
70270;SDS011;57680;54.292;18.598;2024-01-30T06:19:04;54.67;;;20.57;;
70270;SDS011;57680;54.292;18.598;2024-01-30T06:21:29;54.00;;;20.73;;
70270;SDS011;57680;54.292;18.598;2024-01-30T06:23:54;51.60;;;20.33;;
70270;SDS011;57680;54.292;18.598;2024-01-30T06:26:20;54.53;;;20.97;;
70270;SDS011;57680;54.292;18.598;2024-01-30T06:28:45;52.67;;;20.67;;
70270;SDS011;57680;54.292;18.598;2024-01-30T06:31:10;62.50;;;23.07;;
70270;SDS011;57680;54.292;18.598;2024-01-30T06:33:35;73.57;;;24.53;;
70270;SDS011;57680;54.292;18.598;2024-01-30T06:36:01;69.53;;;24.13;;
70270;SDS011;57680;54.292;18.598;2024-01-30T06:38:26;62.83;;;22.23;;
70270;SDS011;57680;54.292;18.598;2024-01-30T06:40:51;69.07;;;23.30;;
70270;SDS011;57680;54.292;18.598;2024-01-30T06:43:17;57.03;;;21.33;;
70270;SDS011;57680;54.292;18.598;2024-01-30T06:45:42;45.07;;;18.40;;
70270;SDS011;57680;54.292;18.598;2024-01-30T06:48:07;47.53;;;18.30;;
70270;SDS011;57680;54.292;18.598;2024-01-30T06:50:32;52.03;;;19.63;;
70270;SDS011;57680;54.292;18.598;2024-01-30T06:52:58;45.20;;;17.70;;
70270;SDS011;57680;54.292;18.598;2024-01-30T06:55:23;44.50;;;16.93;;
70270;SDS011;57680;54.292;18.598;2024-01-30T06:57:48;42.75;;;17.42;;
70270;SDS011;57680;54.292;18.598;2024-01-30T07:00:14;45.90;;;16.97;;
70270;SDS011;57680;54.292;18.598;2024-01-30T07:02:39;48.47;;;18.90;;
70270;SDS011;57680;54.292;18.598;2024-01-30T07:05:05;49.17;;;18.77;;
70270;SDS011;57680;54.292;18.598;2024-01-30T07:07:30;51.65;;;21.23;;
70270;SDS011;57680;54.292;18.598;2024-01-30T07:09:55;51.47;;;18.53;;
70270;SDS011;57680;54.292;18.598;2024-01-30T07:12:21;45.00;;;17.93;;
70270;SDS011;57680;54.292;18.598;2024-01-30T07:14:46;51.17;;;21.07;;
70270;SDS011;57680;54.292;18.598;2024-01-30T07:17:12;43.43;;;17.93;;
70270;SDS011;57680;54.292;18.598;2024-01-30T07:19:37;44.03;;;18.57;;
70270;SDS011;57680;54.292;18.598;2024-01-30T07:22:02;45.40;;;17.60;;
70270;SDS011;57680;54.292;18.598;2024-01-30T07:24:28;45.13;;;17.27;;
70270;SDS011;57680;54.292;18.598;2024-01-30T07:26:53;40.93;;;15.63;;
70270;SDS011;57680;54.292;18.598;2024-01-30T07:29:18;45.60;;;16.60;;
70270;SDS011;57680;54.292;18.598;2024-01-30T07:31:44;42.03;;;15.83;;
70270;SDS011;57680;54.292;18.598;2024-01-30T07:34:09;40.33;;;16.00;;
70270;SDS011;57680;54.292;18.598;2024-01-30T07:36:34;42.03;;;16.17;;
70270;SDS011;57680;54.292;18.598;2024-01-30T07:38:59;39.85;;;15.55;;
70270;SDS011;57680;54.292;18.598;2024-01-30T07:41:25;39.17;;;14.97;;
70270;SDS011;57680;54.292;18.598;2024-01-30T07:43:50;39.87;;;15.83;;
70270;SDS011;57680;54.292;18.598;2024-01-30T07:46:16;35.87;;;14.23;;
70270;SDS011;57680;54.292;18.598;2024-01-30T07:48:41;38.80;;;14.47;;
70270;SDS011;57680;54.292;18.598;2024-01-30T07:51:06;35.15;;;14.70;;
70270;SDS011;57680;54.292;18.598;2024-01-30T07:53:32;36.10;;;14.67;;
70270;SDS011;57680;54.292;18.598;2024-01-30T07:55:57;35.53;;;14.23;;
70270;SDS011;57680;54.292;18.598;2024-01-30T07:58:22;40.90;;;16.03;;
70270;SDS011;57680;54.292;18.598;2024-01-30T08:00:48;36.87;;;15.50;;
70270;SDS011;57680;54.292;18.598;2024-01-30T08:03:13;41.13;;;15.57;;
70270;SDS011;57680;54.292;18.598;2024-01-30T08:05:38;37.67;;;15.17;;
70270;SDS011;57680;54.292;18.598;2024-01-30T08:08:04;41.43;;;16.10;;
70270;SDS011;57680;54.292;18.598;2024-01-30T08:10:29;39.88;;;15.35;;
70270;SDS011;57680;54.292;18.598;2024-01-30T08:12:54;37.93;;;15.33;;
70270;SDS011;57680;54.292;18.598;2024-01-30T08:15:19;38.83;;;16.30;;
70270;SDS011;57680;54.292;18.598;2024-01-30T08:17:45;43.20;;;17.47;;
70270;SDS011;57680;54.292;18.598;2024-01-30T08:20:10;37.70;;;15.53;;
70270;SDS011;57680;54.292;18.598;2024-01-30T08:22:37;37.47;;;15.03;;
70270;SDS011;57680;54.292;18.598;2024-01-30T08:25:04;35.20;;;12.90;;
70270;SDS011;57680;54.292;18.598;2024-01-30T08:27:29;37.33;;;14.13;;
70270;SDS011;57680;54.292;18.598;2024-01-30T08:29:54;35.20;;;14.13;;
70270;SDS011;57680;54.292;18.598;2024-01-30T08:32:30;34.77;;;14.37;;
70270;SDS011;57680;54.292;18.598;2024-01-30T08:34:58;34.53;;;13.70;;
70270;SDS011;57680;54.292;18.598;2024-01-30T08:37:23;37.50;;;14.13;;
70270;SDS011;57680;54.292;18.598;2024-01-30T08:39:48;36.30;;;14.60;;
70270;SDS011;57680;54.292;18.598;2024-01-30T08:42:14;38.43;;;15.53;;
70270;SDS011;57680;54.292;18.598;2024-01-30T08:44:39;36.58;;;14.38;;
70270;SDS011;57680;54.292;18.598;2024-01-30T08:47:04;36.47;;;15.20;;
70270;SDS011;57680;54.292;18.598;2024-01-30T08:49:30;41.07;;;14.77;;
70270;SDS011;57680;54.292;18.598;2024-01-30T08:51:55;38.97;;;15.07;;
70270;SDS011;57680;54.292;18.598;2024-01-30T08:54:20;39.93;;;15.17;;
70270;SDS011;57680;54.292;18.598;2024-01-30T08:56:46;42.80;;;16.07;;
70270;SDS011;57680;54.292;18.598;2024-01-30T08:59:11;39.53;;;16.47;;
70270;SDS011;57680;54.292;18.598;2024-01-30T09:01:36;36.80;;;15.27;;
70270;SDS011;57680;54.292;18.598;2024-01-30T09:04:01;38.00;;;15.23;;
70270;SDS011;57680;54.292;18.598;2024-01-30T09:06:27;38.30;;;15.80;;
70270;SDS011;57680;54.292;18.598;2024-01-30T09:08:52;36.83;;;14.53;;
70270;SDS011;57680;54.292;18.598;2024-01-30T09:11:18;35.47;;;14.93;;
70270;SDS011;57680;54.292;18.598;2024-01-30T09:13:43;35.23;;;14.57;;
70270;SDS011;57680;54.292;18.598;2024-01-30T09:16:08;32.10;;;14.47;;
70270;SDS011;57680;54.292;18.598;2024-01-30T09:18:34;44.20;;;17.87;;
70270;SDS011;57680;54.292;18.598;2024-01-30T09:20:59;39.50;;;16.57;;
70270;SDS011;57680;54.292;18.598;2024-01-30T09:23:25;36.13;;;15.27;;
70270;SDS011;57680;54.292;18.598;2024-01-30T09:25:52;35.50;;;14.10;;
70270;SDS011;57680;54.292;18.598;2024-01-30T09:28:17;33.17;;;13.70;;
70270;SDS011;57680;54.292;18.598;2024-01-30T09:30:42;36.30;;;14.70;;
70270;SDS011;57680;54.292;18.598;2024-01-30T09:33:08;29.63;;;13.83;;
70270;SDS011;57680;54.292;18.598;2024-01-30T09:35:33;43.13;;;16.23;;
70270;SDS011;57680;54.292;18.598;2024-01-30T09:37:58;34.92;;;14.77;;
70270;SDS011;57680;54.292;18.598;2024-01-30T09:40:24;38.90;;;14.37;;
70270;SDS011;57680;54.292;18.598;2024-01-30T09:42:50;43.55;;;16.05;;
70270;SDS011;57680;54.292;18.598;2024-01-30T09:45:19;36.10;;;14.87;;
70270;SDS011;57680;54.292;18.598;2024-01-30T09:47:44;40.47;;;15.45;;
70270;SDS011;57680;54.292;18.598;2024-01-30T09:50:10;36.90;;;14.23;;
70270;SDS011;57680;54.292;18.598;2024-01-30T09:52:37;37.53;;;14.70;;
70270;SDS011;57680;54.292;18.598;2024-01-30T09:55:03;35.33;;;16.23;;
70270;SDS011;57680;54.292;18.598;2024-01-30T09:57:29;40.50;;;16.10;;
70270;SDS011;57680;54.292;18.598;2024-01-30T09:59:54;39.20;;;15.83;;
70270;SDS011;57680;54.292;18.598;2024-01-30T10:02:20;39.63;;;16.50;;
70270;SDS011;57680;54.292;18.598;2024-01-30T10:04:49;37.58;;;15.48;;
70270;SDS011;57680;54.292;18.598;2024-01-30T10:07:15;35.15;;;15.43;;
70270;SDS011;57680;54.292;18.598;2024-01-30T10:09:41;40.30;;;15.20;;
70270;SDS011;57680;54.292;18.598;2024-01-30T10:12:06;39.65;;;15.13;;
70270;SDS011;57680;54.292;18.598;2024-01-30T10:14:32;36.90;;;14.20;;
70270;SDS011;57680;54.292;18.598;2024-01-30T10:16:57;38.97;;;14.53;;
70270;SDS011;57680;54.292;18.598;2024-01-30T10:19:23;40.28;;;17.00;;
70270;SDS011;57680;54.292;18.598;2024-01-30T10:21:48;48.83;;;18.30;;
70270;SDS011;57680;54.292;18.598;2024-01-30T10:24:14;44.47;;;17.07;;
70270;SDS011;57680;54.292;18.598;2024-01-30T10:26:39;42.33;;;16.93;;
70270;SDS011;57680;54.292;18.598;2024-01-30T10:29:04;35.65;;;14.80;;
70270;SDS011;57680;54.292;18.598;2024-01-30T10:31:30;35.83;;;13.90;;
70270;SDS011;57680;54.292;18.598;2024-01-30T10:33:55;36.80;;;15.03;;
70270;SDS011;57680;54.292;18.598;2024-01-30T10:36:21;36.15;;;14.15;;
70270;SDS011;57680;54.292;18.598;2024-01-30T10:38:53;33.60;;;14.63;;
70270;SDS011;57680;54.292;18.598;2024-01-30T10:41:24;33.17;;;13.45;;
70270;SDS011;57680;54.292;18.598;2024-01-30T10:43:58;34.67;;;13.60;;
70270;SDS011;57680;54.292;18.598;2024-01-30T10:46:29;34.15;;;14.07;;
70270;SDS011;57680;54.292;18.598;2024-01-30T10:48:59;30.55;;;13.57;;
70270;SDS011;57680;54.292;18.598;2024-01-30T10:51:28;33.38;;;13.40;;
70270;SDS011;57680;54.292;18.598;2024-01-30T10:53:56;33.45;;;12.80;;
70270;SDS011;57680;54.292;18.598;2024-01-30T10:56:21;31.47;;;12.67;;
70270;SDS011;57680;54.292;18.598;2024-01-30T10:58:53;32.00;;;12.93;;
70270;SDS011;57680;54.292;18.598;2024-01-30T11:01:22;32.95;;;12.32;;
70270;SDS011;57680;54.292;18.598;2024-01-30T11:03:51;27.50;;;12.80;;
70270;SDS011;57680;54.292;18.598;2024-01-30T11:06:18;30.93;;;11.80;;
70270;SDS011;57680;54.292;18.598;2024-01-30T11:08:43;25.83;;;11.57;;
70270;SDS011;57680;54.292;18.598;2024-01-30T11:11:10;29.67;;;11.98;;
70270;SDS011;57680;54.292;18.598;2024-01-30T11:13:35;28.57;;;12.13;;
70270;SDS011;57680;54.292;18.598;2024-01-30T11:16:01;30.43;;;11.83;;
70270;SDS011;57680;54.292;18.598;2024-01-30T11:18:32;33.40;;;13.85;;
70270;SDS011;57680;54.292;18.598;2024-01-30T11:21:01;31.53;;;14.03;;
70270;SDS011;57680;54.292;18.598;2024-01-30T11:23:26;30.83;;;13.50;;
70270;SDS011;57680;54.292;18.598;2024-01-30T11:25:56;30.02;;;14.13;;
70270;SDS011;57680;54.292;18.598;2024-01-30T11:28:22;36.00;;;14.65;;
70270;SDS011;57680;54.292;18.598;2024-01-30T11:30:48;34.80;;;15.20;;
70270;SDS011;57680;54.292;18.598;2024-01-30T11:33:14;34.20;;;14.60;;
70270;SDS011;57680;54.292;18.598;2024-01-30T11:35:43;42.50;;;16.70;;
70270;SDS011;57680;54.292;18.598;2024-01-30T11:38:10;36.17;;;13.70;;
70270;SDS011;57680;54.292;18.598;2024-01-30T11:40:40;30.77;;;13.10;;
70270;SDS011;57680;54.292;18.598;2024-01-30T11:43:06;30.63;;;13.30;;
70270;SDS011;57680;54.292;18.598;2024-01-30T11:45:33;25.53;;;12.93;;
70270;SDS011;57680;54.292;18.598;2024-01-30T11:48:00;32.10;;;13.25;;
70270;SDS011;57680;54.292;18.598;2024-01-30T11:50:25;29.33;;;14.30;;
70270;SDS011;57680;54.292;18.598;2024-01-30T11:52:51;29.00;;;12.67;;
70270;SDS011;57680;54.292;18.598;2024-01-30T11:55:16;27.77;;;12.30;;
70270;SDS011;57680;54.292;18.598;2024-01-30T11:57:42;27.48;;;12.38;;
70270;SDS011;57680;54.292;18.598;2024-01-30T12:00:17;30.27;;;12.47;;
70270;SDS011;57680;54.292;18.598;2024-01-30T12:02:44;27.92;;;11.95;;
70270;SDS011;57680;54.292;18.598;2024-01-30T12:05:13;27.00;;;12.25;;
70270;SDS011;57680;54.292;18.598;2024-01-30T12:07:39;27.80;;;12.40;;
70270;SDS011;57680;54.292;18.598;2024-01-30T12:10:04;26.47;;;11.87;;
70270;SDS011;57680;54.292;18.598;2024-01-30T12:12:29;25.70;;;11.98;;
70270;SDS011;57680;54.292;18.598;2024-01-30T12:14:55;28.07;;;12.60;;
70270;SDS011;57680;54.292;18.598;2024-01-30T12:17:30;28.10;;;11.90;;
70270;SDS011;57680;54.292;18.598;2024-01-30T12:20:06;29.15;;;12.18;;
70270;SDS011;57680;54.292;18.598;2024-01-30T12:22:35;28.00;;;12.52;;
70270;SDS011;57680;54.292;18.598;2024-01-30T12:25:02;26.38;;;11.15;;
70270;SDS011;57680;54.292;18.598;2024-01-30T12:27:29;32.92;;;12.68;;
70270;SDS011;57680;54.292;18.598;2024-01-30T12:29:57;25.73;;;11.73;;
70270;SDS011;57680;54.292;18.598;2024-01-30T12:32:23;29.63;;;12.48;;
70270;SDS011;57680;54.292;18.598;2024-01-30T12:34:48;30.57;;;12.77;;
70270;SDS011;57680;54.292;18.598;2024-01-30T12:37:14;29.60;;;12.60;;
70270;SDS011;57680;54.292;18.598;2024-01-30T12:39:39;26.83;;;11.67;;
70270;SDS011;57680;54.292;18.598;2024-01-30T12:42:05;29.13;;;12.30;;
70270;SDS011;57680;54.292;18.598;2024-01-30T12:44:30;27.17;;;12.27;;
70270;SDS011;57680;54.292;18.598;2024-01-30T12:46:56;30.63;;;12.60;;
70270;SDS011;57680;54.292;18.598;2024-01-30T12:49:21;29.27;;;11.87;;
70270;SDS011;57680;54.292;18.598;2024-01-30T12:51:46;31.57;;;12.70;;
70270;SDS011;57680;54.292;18.598;2024-01-30T13:17:55;30.70;;;14.38;;
70270;SDS011;57680;54.292;18.598;2024-01-30T13:20:20;28.53;;;12.53;;
70270;SDS011;57680;54.292;18.598;2024-01-30T13:22:46;26.00;;;12.07;;
70270;SDS011;57680;54.292;18.598;2024-01-30T13:25:12;26.73;;;12.73;;
70270;SDS011;57680;54.292;18.598;2024-01-30T13:27:38;26.87;;;11.93;;
70270;SDS011;57680;54.292;18.598;2024-01-30T13:30:03;28.07;;;12.93;;
70270;SDS011;57680;54.292;18.598;2024-01-30T13:32:30;28.55;;;11.65;;
70270;SDS011;57680;54.292;18.598;2024-01-30T13:34:55;27.75;;;12.10;;
70270;SDS011;57680;54.292;18.598;2024-01-30T13:37:22;31.20;;;12.13;;
70270;SDS011;57680;54.292;18.598;2024-01-30T13:39:48;26.13;;;11.90;;
70270;SDS011;57680;54.292;18.598;2024-01-30T13:42:13;27.30;;;11.80;;
70270;SDS011;57680;54.292;18.598;2024-01-30T13:44:39;28.67;;;12.65;;
70270;SDS011;57680;54.292;18.598;2024-01-30T13:47:04;28.03;;;12.20;;
70270;SDS011;57680;54.292;18.598;2024-01-30T13:49:30;28.23;;;12.43;;
70270;SDS011;57680;54.292;18.598;2024-01-30T13:51:55;31.27;;;12.67;;
70270;SDS011;57680;54.292;18.598;2024-01-30T13:54:20;27.87;;;12.47;;
70270;SDS011;57680;54.292;18.598;2024-01-30T13:56:46;27.60;;;11.30;;
70270;SDS011;57680;54.292;18.598;2024-01-30T13:59:11;25.83;;;11.13;;
70270;SDS011;57680;54.292;18.598;2024-01-30T14:01:45;26.33;;;11.10;;
70270;SDS011;57680;54.292;18.598;2024-01-30T14:09:58;25.30;;;10.98;;
70270;SDS011;57680;54.292;18.598;2024-01-30T14:12:24;24.23;;;10.67;;
70270;SDS011;57680;54.292;18.598;2024-01-30T14:17:02;27.25;;;11.45;;
70270;SDS011;57680;54.292;18.598;2024-01-30T14:19:28;26.42;;;11.27;;
70270;SDS011;57680;54.292;18.598;2024-01-30T14:21:53;25.13;;;11.03;;
70270;SDS011;57680;54.292;18.598;2024-01-30T14:24:18;30.13;;;12.30;;
70270;SDS011;57680;54.292;18.598;2024-01-30T14:26:43;29.30;;;12.23;;
70270;SDS011;57680;54.292;18.598;2024-01-30T14:29:09;31.57;;;11.30;;
70270;SDS011;57680;54.292;18.598;2024-01-30T14:31:35;29.10;;;12.98;;